sensor_id;sensor_type;location;lat;lon;timestamp;pressure;altitude;pressure_sealevel;temperature
15144;BMP180;7672;50.834;6.286;2023-04-01T00:02:25;97551.28;;;13.20
15144;BMP180;7672;50.834;6.286;2023-04-01T00:04:52;97544.56;;;13.19
15144;BMP180;7672;50.834;6.286;2023-04-01T00:07:19;97537.88;;;13.16
15144;BMP180;7672;50.834;6.286;2023-04-01T00:09:46;97536.19;;;13.17
15144;BMP180;7672;50.834;6.286;2023-04-01T00:12:13;97531.06;;;13.18
15144;BMP180;7672;50.834;6.286;2023-04-01T00:14:39;97543.75;;;13.18
15144;BMP180;7672;50.834;6.286;2023-04-01T00:17:06;97534.47;;;13.17
15144;BMP180;7672;50.834;6.286;2023-04-01T00:19:33;97525.94;;;13.20
15144;BMP180;7672;50.834;6.286;2023-04-01T00:22:00;97532.72;;;13.19
15144;BMP180;7672;50.834;6.286;2023-04-01T00:24:27;97531.84;;;13.20
15144;BMP180;7672;50.834;6.286;2023-04-01T00:26:55;97532.66;;;13.21
15144;BMP180;7672;50.834;6.286;2023-04-01T00:29:21;97520.03;;;13.19
15144;BMP180;7672;50.834;6.286;2023-04-01T00:31:50;97539.38;;;13.22
15144;BMP180;7672;50.834;6.286;2023-04-01T00:34:17;97536.06;;;13.20
15144;BMP180;7672;50.834;6.286;2023-04-01T00:36:44;97536.91;;;13.20
15144;BMP180;7672;50.834;6.286;2023-04-01T00:39:10;97537.78;;;13.19
15144;BMP180;7672;50.834;6.286;2023-04-01T00:41:37;97542.09;;;13.17
15144;BMP180;7672;50.834;6.286;2023-04-01T00:44:24;97539.56;;;13.17
15144;BMP180;7672;50.834;6.286;2023-04-01T00:46:51;97536.28;;;13.15
15144;BMP180;7672;50.834;6.286;2023-04-01T00:49:27;97547.16;;;13.17
15144;BMP180;7672;50.834;6.286;2023-04-01T00:51:59;97545.56;;;13.15
15144;BMP180;7672;50.834;6.286;2023-04-01T00:54:30;97552.34;;;13.14
15144;BMP180;7672;50.834;6.286;2023-04-01T00:57:05;97548.25;;;13.12
15144;BMP180;7672;50.834;6.286;2023-04-01T00:59:39;97537.31;;;13.10
15144;BMP180;7672;50.834;6.286;2023-04-01T01:02:11;97545.88;;;13.07
15144;BMP180;7672;50.834;6.286;2023-04-01T01:04:38;97546.78;;;13.06
15144;BMP180;7672;50.834;6.286;2023-04-01T01:10:26;97541.72;;;13.06
15144;BMP180;7672;50.834;6.286;2023-04-01T01:15:57;97552.00;;;13.02
15144;BMP180;7672;50.834;6.286;2023-04-01T01:25:16;97541.28;;;12.96
15144;BMP180;7672;50.834;6.286;2023-04-01T01:27:21;97540.50;;;12.94
15144;BMP180;7672;50.834;6.286;2023-04-01T01:33:03;97538.81;;;12.94
15144;BMP180;7672;50.834;6.286;2023-04-01T01:35:56;97543.03;;;12.94
15144;BMP180;7672;50.834;6.286;2023-04-01T01:38:31;97542.22;;;12.93
15144;BMP180;7672;50.834;6.286;2023-04-01T01:41:00;97549.78;;;12.95
15144;BMP180;7672;50.834;6.286;2023-04-01T01:43:39;97548.91;;;12.96
15144;BMP180;7672;50.834;6.286;2023-04-01T01:46:13;97543.00;;;12.95
15144;BMP180;7672;50.834;6.286;2023-04-01T01:48:43;97531.97;;;12.96
15144;BMP180;7672;50.834;6.286;2023-04-01T01:51:11;97524.41;;;12.95
15144;BMP180;7672;50.834;6.286;2023-04-01T01:53:38;97535.44;;;12.94
15144;BMP180;7672;50.834;6.286;2023-04-01T01:56:05;97532.16;;;12.92
15144;BMP180;7672;50.834;6.286;2023-04-01T01:58:38;97532.22;;;12.90
15144;BMP180;7672;50.834;6.286;2023-04-01T02:01:13;97538.22;;;12.88
15144;BMP180;7672;50.834;6.286;2023-04-01T02:03:44;97549.19;;;12.88
15144;BMP180;7672;50.834;6.286;2023-04-01T02:06:17;97540.72;;;12.89
15144;BMP180;7672;50.834;6.286;2023-04-01T02:09:00;97538.97;;;12.90
15144;BMP180;7672;50.834;6.286;2023-04-01T02:11:55;97537.28;;;12.90
15144;BMP180;7672;50.834;6.286;2023-04-01T02:17:17;97539.06;;;12.88
15144;BMP180;7672;50.834;6.286;2023-04-01T02:19:53;97543.25;;;12.89
15144;BMP180;7672;50.834;6.286;2023-04-01T02:22:29;97540.72;;;12.89
15144;BMP180;7672;50.834;6.286;2023-04-01T02:25:05;97542.38;;;12.90
15144;BMP180;7672;50.834;6.286;2023-04-01T02:27:33;97542.41;;;12.89
15144;BMP180;7672;50.834;6.286;2023-04-01T02:30:00;97544.94;;;12.89
15144;BMP180;7672;50.834;6.286;2023-04-01T02:32:29;97544.06;;;12.90
15144;BMP180;7672;50.834;6.286;2023-04-01T02:34:57;97543.16;;;12.91
15144;BMP180;7672;50.834;6.286;2023-04-01T02:37:26;97560.03;;;12.92
15144;BMP180;7672;50.834;6.286;2023-04-01T02:39:53;97535.50;;;12.92
15144;BMP180;7672;50.834;6.286;2023-04-01T02:42:20;97547.31;;;12.93
15144;BMP180;7672;50.834;6.286;2023-04-01T02:44:47;97543.88;;;12.94
15144;BMP180;7672;50.834;6.286;2023-04-01T02:47:13;97548.97;;;12.94
15144;BMP180;7672;50.834;6.286;2023-04-01T02:49:40;97543.88;;;12.94
15144;BMP180;7672;50.834;6.286;2023-04-01T02:52:08;97553.19;;;12.94
15144;BMP180;7672;50.834;6.286;2023-04-01T02:54:34;97540.56;;;12.92
15144;BMP180;7672;50.834;6.286;2023-04-01T02:57:01;97554.91;;;12.93
15144;BMP180;7672;50.834;6.286;2023-04-01T02:59:28;97558.25;;;12.94
15144;BMP180;7672;50.834;6.286;2023-04-01T03:01:55;97562.50;;;12.93
15144;BMP180;7672;50.834;6.286;2023-04-01T03:04:22;97565.03;;;12.93
15144;BMP180;7672;50.834;6.286;2023-04-01T03:06:48;97552.31;;;12.95
15144;BMP180;7672;50.834;6.286;2023-04-01T03:09:15;97552.38;;;12.93
15144;BMP180;7672;50.834;6.286;2023-04-01T03:11:42;97556.50;;;12.96
15144;BMP180;7672;50.834;6.286;2023-04-01T03:14:09;97557.38;;;12.95
15144;BMP180;7672;50.834;6.286;2023-04-01T03:16:35;97557.22;;;12.99
15144;BMP180;7672;50.834;6.286;2023-04-01T03:19:02;97556.38;;;12.98
15144;BMP180;7672;50.834;6.286;2023-04-01T03:21:29;97563.09;;;12.99
15144;BMP180;7672;50.834;6.286;2023-04-01T03:23:56;97558.03;;;12.99
15144;BMP180;7672;50.834;6.286;2023-04-01T03:26:23;97562.28;;;12.99
15144;BMP180;7672;50.834;6.286;2023-04-01T03:28:50;97572.47;;;12.97
15144;BMP180;7672;50.834;6.286;2023-04-01T03:31:16;97572.47;;;12.97
15144;BMP180;7672;50.834;6.286;2023-04-01T03:33:43;97572.47;;;12.97
15144;BMP180;7672;50.834;6.286;2023-04-01T03:36:11;97577.50;;;12.99
15144;BMP180;7672;50.834;6.286;2023-04-01T03:38:40;97578.31;;;12.99
15144;BMP180;7672;50.834;6.286;2023-04-01T03:41:11;97584.31;;;12.97
15144;BMP180;7672;50.834;6.286;2023-04-01T03:43:38;97569.13;;;12.97
15144;BMP180;7672;50.834;6.286;2023-04-01T03:46:05;97575.78;;;12.99
15144;BMP180;7672;50.834;6.286;2023-04-01T03:48:32;97582.50;;;13.00
15144;BMP180;7672;50.834;6.286;2023-04-01T03:50:59;97586.69;;;13.01
15144;BMP180;7672;50.834;6.286;2023-04-01T03:53:26;97582.44;;;13.02
15144;BMP180;7672;50.834;6.286;2023-04-01T03:55:53;97587.56;;;13.00
15144;BMP180;7672;50.834;6.286;2023-04-01T03:58:20;97585.91;;;12.99
15144;BMP180;7672;50.834;6.286;2023-04-01T04:00:47;97587.56;;;13.00
15144;BMP180;7672;50.834;6.286;2023-04-01T04:03:13;97585.91;;;12.99
15144;BMP180;7672;50.834;6.286;2023-04-01T04:05:50;97585.03;;;13.00
15144;BMP180;7672;50.834;6.286;2023-04-01T04:08:17;97595.28;;;12.97
15144;BMP180;7672;50.834;6.286;2023-04-01T04:10:44;97593.75;;;13.15
15144;BMP180;7672;50.834;6.286;2023-04-01T04:13:12;97606.13;;;13.22
15144;BMP180;7672;50.834;6.286;2023-04-01T04:15:39;97598.72;;;13.18
15144;BMP180;7672;50.834;6.286;2023-04-01T04:18:06;97595.47;;;13.14
15144;BMP180;7672;50.834;6.286;2023-04-01T04:20:33;97609.09;;;13.12
15144;BMP180;7672;50.834;6.286;2023-04-01T04:23:00;97603.25;;;13.10
15144;BMP180;7672;50.834;6.286;2023-04-01T04:25:27;97610.84;;;13.10
15144;BMP180;7672;50.834;6.286;2023-04-01T04:27:54;97619.31;;;13.10
15144;BMP180;7672;50.834;6.286;2023-04-01T04:30:20;97612.50;;;13.11
15144;BMP180;7672;50.834;6.286;2023-04-01T04:32:47;97615.84;;;13.11
15144;BMP180;7672;50.834;6.286;2023-04-01T04:35:14;97613.31;;;13.11
15144;BMP180;7672;50.834;6.286;2023-04-01T04:37:41;97626.78;;;13.13
15144;BMP180;7672;50.834;6.286;2023-04-01T04:40:08;97621.63;;;13.15
15144;BMP180;7672;50.834;6.286;2023-04-01T04:42:35;97624.19;;;13.15
15144;BMP180;7672;50.834;6.286;2023-04-01T04:45:02;97619.94;;;13.15
15144;BMP180;7672;50.834;6.286;2023-04-01T04:47:29;97628.44;;;13.14
15144;BMP180;7672;50.834;6.286;2023-04-01T04:49:56;97626.78;;;13.13
15144;BMP180;7672;50.834;6.286;2023-04-01T04:52:23;97628.44;;;13.14
15144;BMP180;7672;50.834;6.286;2023-04-01T04:54:50;97634.25;;;13.16
15144;BMP180;7672;50.834;6.286;2023-04-01T04:57:16;97638.50;;;13.16
15144;BMP180;7672;50.834;6.286;2023-04-01T04:59:43;97635.09;;;13.17
15144;BMP180;7672;50.834;6.286;2023-04-01T05:02:10;97637.56;;;13.18
15144;BMP180;7672;50.834;6.286;2023-04-01T05:04:37;97649.38;;;13.19
15144;BMP180;7672;50.834;6.286;2023-04-01T05:07:04;97648.53;;;13.19
15144;BMP180;7672;50.834;6.286;2023-04-01T05:09:31;97642.72;;;13.17
15144;BMP180;7672;50.834;6.286;2023-04-01T05:11:58;97653.59;;;13.19
15144;BMP180;7672;50.834;6.286;2023-04-01T05:14:25;97645.19;;;13.18
15144;BMP180;7672;50.834;6.286;2023-04-01T05:16:52;97657.84;;;13.18
15144;BMP180;7672;50.834;6.286;2023-04-01T05:19:19;97662.06;;;13.19
15144;BMP180;7672;50.834;6.286;2023-04-01T05:21:46;97653.56;;;13.20
15144;BMP180;7672;50.834;6.286;2023-04-01T05:24:12;97656.97;;;13.19
15144;BMP180;7672;50.834;6.286;2023-04-01T05:26:39;97657.84;;;13.18
15144;BMP180;7672;50.834;6.286;2023-04-01T05:29:06;97658.75;;;13.17
15144;BMP180;7672;50.834;6.286;2023-04-01T05:31:33;97663.81;;;13.17
15144;BMP180;7672;50.834;6.286;2023-04-01T05:34:00;97660.41;;;13.18
15144;BMP180;7672;50.834;6.286;2023-04-01T05:36:27;97667.13;;;13.19
15144;BMP180;7672;50.834;6.286;2023-04-01T05:38:56;97668.72;;;13.22
15144;BMP180;7672;50.834;6.286;2023-04-01T05:41:23;97671.25;;;13.22
15144;BMP180;7672;50.834;6.286;2023-04-01T05:43:50;97673.72;;;13.23
15144;BMP180;7672;50.834;6.286;2023-04-01T05:46:17;97671.19;;;13.23
15144;BMP180;7672;50.834;6.286;2023-04-01T05:48:44;97685.47;;;13.26
15144;BMP180;7672;50.834;6.286;2023-04-01T05:51:14;97688.00;;;13.26
15144;BMP180;7672;50.834;6.286;2023-04-01T05:53:42;97684.59;;;13.27
15144;BMP180;7672;50.834;6.286;2023-04-01T05:56:09;97688.75;;;13.28
15144;BMP180;7672;50.834;6.286;2023-04-01T05:58:37;97679.41;;;13.30
15144;BMP180;7672;50.834;6.286;2023-04-01T06:01:10;97685.28;;;13.30
15144;BMP180;7672;50.834;6.286;2023-04-01T06:03:41;97686.13;;;13.31
15144;BMP180;7672;50.834;6.286;2023-04-01T06:06:36;97686.94;;;13.31
15144;BMP180;7672;50.834;6.286;2023-04-01T06:09:32;97691.06;;;13.34
15144;BMP180;7672;50.834;6.286;2023-04-01T06:15:05;97685.13;;;13.35
15144;BMP180;7672;50.834;6.286;2023-04-01T06:26:58;97703.03;;;13.30
15144;BMP180;7672;50.834;6.286;2023-04-01T06:32:33;97713.16;;;13.32
15144;BMP180;7672;50.834;6.286;2023-04-01T06:38:33;97718.81;;;13.38
15144;BMP180;7672;50.834;6.286;2023-04-01T06:56:00;97731.22;;;13.46
15144;BMP180;7672;50.834;6.286;2023-04-01T06:58:46;97736.09;;;13.50
15144;BMP180;7672;50.834;6.286;2023-04-01T07:01:22;97737.56;;;13.56
15144;BMP180;7672;50.834;6.286;2023-04-01T07:04:24;97734.06;;;13.59
15144;BMP180;7672;50.834;6.286;2023-04-01T07:07:29;97746.69;;;13.61
15144;BMP180;7672;50.834;6.286;2023-04-01T07:10:04;97741.41;;;13.65
15144;BMP180;7672;50.834;6.286;2023-04-01T07:15:12;97744.53;;;13.72
15144;BMP180;7672;50.834;6.286;2023-04-01T07:17:43;97747.03;;;13.73
15144;BMP180;7672;50.834;6.286;2023-04-01T07:20:32;97751.19;;;13.74
15144;BMP180;7672;50.834;6.286;2023-04-01T07:23:04;97749.50;;;13.75
15144;BMP180;7672;50.834;6.286;2023-04-01T07:25:38;97759.53;;;13.78
15144;BMP180;7672;50.834;6.286;2023-04-01T07:28:14;97752.63;;;13.81
15144;BMP180;7672;50.834;6.286;2023-04-01T07:33:45;97766.72;;;13.88
15144;BMP180;7672;50.834;6.286;2023-04-01T07:36:39;97769.09;;;13.93
15144;BMP180;7672;50.834;6.286;2023-04-01T07:45:30;97778.19;;;13.98
15144;BMP180;7672;50.834;6.286;2023-04-01T07:48:38;97788.34;;;13.98
15144;BMP180;7672;50.834;6.286;2023-04-01T07:51:29;97799.34;;;13.99
15144;BMP180;7672;50.834;6.286;2023-04-01T07:54:21;97790.81;;;14.00
15144;BMP180;7672;50.834;6.286;2023-04-01T08:00:03;97802.50;;;14.04
15144;BMP180;7672;50.834;6.286;2023-04-01T08:05:57;97814.22;;;14.08
15144;BMP180;7672;50.834;6.286;2023-04-01T08:15:23;97825.94;;;14.12
15144;BMP180;7672;50.834;6.286;2023-04-01T08:18:09;97831.75;;;14.14
15144;BMP180;7672;50.834;6.286;2023-04-01T08:20:51;97835.84;;;14.18
15144;BMP180;7672;50.834;6.286;2023-04-01T08:23:27;97831.59;;;14.18
15144;BMP180;7672;50.834;6.286;2023-04-01T08:26:17;97847.56;;;14.22
15144;BMP180;7672;50.834;6.286;2023-04-01T08:28:58;97839.03;;;14.22
15144;BMP180;7672;50.834;6.286;2023-04-01T08:34:23;97841.25;;;14.30
15144;BMP180;7672;50.834;6.286;2023-04-01T08:37:00;97852.16;;;14.33
15144;BMP180;7672;50.834;6.286;2023-04-01T08:42:47;97853.59;;;14.39
15144;BMP180;7672;50.834;6.286;2023-04-01T08:45:56;97864.69;;;14.38
15144;BMP180;7672;50.834;6.286;2023-04-01T08:51:59;97866.94;;;14.44
15144;BMP180;7672;50.834;6.286;2023-04-01T08:57:42;97882.38;;;14.61
15144;BMP180;7672;50.834;6.286;2023-04-01T09:00:43;97893.06;;;14.69
15144;BMP180;7672;50.834;6.286;2023-04-01T09:09:24;97895.81;;;14.84
15144;BMP180;7672;50.834;6.286;2023-04-01T09:15:53;97896.25;;;14.93
15144;BMP180;7672;50.834;6.286;2023-04-01T09:21:15;97897.91;;;14.94
15144;BMP180;7672;50.834;6.286;2023-04-01T09:24:23;97903.69;;;14.98
15144;BMP180;7672;50.834;6.286;2023-04-01T09:27:09;97907.00;;;15.00
15144;BMP180;7672;50.834;6.286;2023-04-01T09:35:38;97910.75;;;15.11
15144;BMP180;7672;50.834;6.286;2023-04-01T09:46:23;97924.81;;;15.40
15144;BMP180;7672;50.834;6.286;2023-04-01T09:58:32;97935.53;;;15.66
15144;BMP180;7672;50.834;6.286;2023-04-01T10:16:01;97956.91;;;16.00
15144;BMP180;7672;50.834;6.286;2023-04-01T10:40:03;97982.97;;;16.43
15144;BMP180;7672;50.834;6.286;2023-04-01T10:46:25;97984.59;;;16.63
15144;BMP180;7672;50.834;6.286;2023-04-01T11:05:07;97991.28;;;17.00
15144;BMP180;7672;50.834;6.286;2023-04-01T11:08:33;97999.81;;;16.99
15144;BMP180;7672;50.834;6.286;2023-04-01T11:17:49;97997.88;;;16.87
15144;BMP180;7672;50.834;6.286;2023-04-01T11:24:08;98001.28;;;16.70
15144;BMP180;7672;50.834;6.286;2023-04-01T11:32:13;98007.44;;;16.47
15144;BMP180;7672;50.834;6.286;2023-04-01T11:38:52;98027.06;;;16.27
15144;BMP180;7672;50.834;6.286;2023-04-01T11:41:42;98023.75;;;16.25
15144;BMP180;7672;50.834;6.286;2023-04-01T11:44:22;98029.09;;;16.19
15144;BMP180;7672;50.834;6.286;2023-04-01T11:47:26;98023.53;;;16.11
15144;BMP180;7672;50.834;6.286;2023-04-01T11:50:08;98036.38;;;16.08
15144;BMP180;7672;50.834;6.286;2023-04-01T11:53:01;98039.06;;;16.05
15144;BMP180;7672;50.834;6.286;2023-04-01T11:58:32;98042.31;;;16.08
15144;BMP180;7672;50.834;6.286;2023-04-01T12:10:19;98062.34;;;16.36
15144;BMP180;7672;50.834;6.286;2023-04-01T12:13:14;98065.88;;;16.52
15144;BMP180;7672;50.834;6.286;2023-04-01T12:16:13;98056.94;;;16.62
15144;BMP180;7672;50.834;6.286;2023-04-01T12:19:09;98065.19;;;16.67
15144;BMP180;7672;50.834;6.286;2023-04-01T12:22:19;98060.03;;;16.68
15144;BMP180;7672;50.834;6.286;2023-04-01T12:25:05;98072.69;;;16.70
15144;BMP180;7672;50.834;6.286;2023-04-01T12:33:54;98088.41;;;16.79
15144;BMP180;7672;50.834;6.286;2023-04-01T12:39:51;98077.19;;;16.83
15144;BMP180;7672;50.834;6.286;2023-04-01T12:43:02;98085.66;;;16.83
15144;BMP180;7672;50.834;6.286;2023-04-01T12:45:34;98082.22;;;16.84
15144;BMP180;7672;50.834;6.286;2023-04-01T12:57:48;98095.31;;;16.77
15144;BMP180;7672;50.834;6.286;2023-04-01T13:13:28;98101.09;;;17.16
15144;BMP180;7672;50.834;6.286;2023-04-01T13:19:00;98105.16;;;17.38
15144;BMP180;7672;50.834;6.286;2023-04-01T13:21:58;98108.88;;;17.49
15144;BMP180;7672;50.834;6.286;2023-04-01T13:24:40;98119.41;;;17.60
15144;BMP180;7672;50.834;6.286;2023-04-01T13:27:35;98122.47;;;17.67
15144;BMP180;7672;50.834;6.286;2023-04-01T13:30:29;98121.44;;;17.71
15144;BMP180;7672;50.834;6.286;2023-04-01T13:33:20;98124.78;;;17.71
15144;BMP180;7672;50.834;6.286;2023-04-01T13:36:03;98131.44;;;17.75
15144;BMP180;7672;50.834;6.286;2023-04-01T13:39:06;98139.63;;;17.82
15144;BMP180;7672;50.834;6.286;2023-04-01T13:42:00;98130.97;;;17.84
15144;BMP180;7672;50.834;6.286;2023-04-01T13:47:59;98139.31;;;17.88
15144;BMP180;7672;50.834;6.286;2023-04-01T14:02:28;98145.91;;;17.75
15144;BMP180;7672;50.834;6.286;2023-04-01T14:05:12;98137.44;;;17.74
15144;BMP180;7672;50.834;6.286;2023-04-01T14:11:16;98150.75;;;17.81
15144;BMP180;7672;50.834;6.286;2023-04-01T14:29:13;98164.78;;;17.72
15144;BMP180;7672;50.834;6.286;2023-04-01T14:32:13;98168.22;;;17.71
15144;BMP180;7672;50.834;6.286;2023-04-01T14:35:14;98163.81;;;17.75
15144;BMP180;7672;50.834;6.286;2023-04-01T14:49:34;98186.31;;;18.02
15144;BMP180;7672;50.834;6.286;2023-04-01T14:52:24;98193.09;;;18.03
15144;BMP180;7672;50.834;6.286;2023-04-01T14:54:54;98191.34;;;18.03
15144;BMP180;7672;50.834;6.286;2023-04-01T14:57:29;98196.22;;;18.08
15144;BMP180;7672;50.834;6.286;2023-04-01T15:02:58;98191.69;;;18.13
15144;BMP180;7672;50.834;6.286;2023-04-01T15:12:34;98206.00;;;18.00
15144;BMP180;7672;50.834;6.286;2023-04-01T15:15:49;98206.34;;;17.93
15144;BMP180;7672;50.834;6.286;2023-04-01T15:30:20;98223.50;;;17.91
15144;BMP180;7672;50.834;6.286;2023-04-01T15:33:34;98229.69;;;17.87
15144;BMP180;7672;50.834;6.286;2023-04-01T15:36:33;98228.09;;;17.84
15144;BMP180;7672;50.834;6.286;2023-04-01T15:39:21;98234.91;;;17.84
15144;BMP180;7672;50.834;6.286;2023-04-01T15:42:06;98237.53;;;17.82
15144;BMP180;7672;50.834;6.286;2023-04-01T15:47:37;98244.06;;;17.71
15144;BMP180;7672;50.834;6.286;2023-04-01T15:53:11;98248.50;;;17.49
15144;BMP180;7672;50.834;6.286;2023-04-01T15:56:30;98250.31;;;17.29
15144;BMP180;7672;50.834;6.286;2023-04-01T15:59:53;98263.19;;;17.07
15144;BMP180;7672;50.834;6.286;2023-04-01T16:08:50;98271.91;;;16.64
15144;BMP180;7672;50.834;6.286;2023-04-01T16:11:43;98269.88;;;16.52
15144;BMP180;7672;50.834;6.286;2023-04-01T16:14:36;98275.16;;;16.47
15144;BMP180;7672;50.834;6.286;2023-04-01T16:17:29;98284.78;;;16.41
15144;BMP180;7672;50.834;6.286;2023-04-01T16:22:45;98289.50;;;16.30
15144;BMP180;7672;50.834;6.286;2023-04-01T16:25:40;98288.88;;;16.23
15144;BMP180;7672;50.834;6.286;2023-04-01T16:28:47;98290.97;;;16.14
15144;BMP180;7672;50.834;6.286;2023-04-01T16:31:34;98298.03;;;16.08
15144;BMP180;7672;50.834;6.286;2023-04-01T16:34:14;98306.75;;;16.02
15144;BMP180;7672;50.834;6.286;2023-04-01T16:36:52;98310.28;;;15.98
15144;BMP180;7672;50.834;6.286;2023-04-01T16:47:40;98317.75;;;15.81
15144;BMP180;7672;50.834;6.286;2023-04-01T16:56:16;98330.31;;;15.64
15144;BMP180;7672;50.834;6.286;2023-04-01T16:59:03;98337.38;;;15.56
15144;BMP180;7672;50.834;6.286;2023-04-01T17:04:48;98342.06;;;15.46
15144;BMP180;7672;50.834;6.286;2023-04-01T17:07:52;98345.63;;;15.40
15144;BMP180;7672;50.834;6.286;2023-04-01T17:14:04;98356.38;;;15.25
15144;BMP180;7672;50.834;6.286;2023-04-01T17:17:01;98360.84;;;15.19
15144;BMP180;7672;50.834;6.286;2023-04-01T17:22:34;98363.63;;;15.11
15144;BMP180;7672;50.834;6.286;2023-04-01T17:25:14;98379.00;;;15.08
15144;BMP180;7672;50.834;6.286;2023-04-01T17:27:57;98371.59;;;15.02
15144;BMP180;7672;50.834;6.286;2023-04-01T17:39:32;98385.22;;;14.76
15144;BMP180;7672;50.834;6.286;2023-04-01T17:42:11;98390.56;;;14.68
15144;BMP180;7672;50.834;6.286;2023-04-01T17:45:21;98398.41;;;14.62
15144;BMP180;7672;50.834;6.286;2023-04-01T17:48:29;98397.03;;;14.52
15144;BMP180;7672;50.834;6.286;2023-04-01T17:51:37;98407.38;;;14.46
15144;BMP180;7672;50.834;6.286;2023-04-01T17:54:43;98412.56;;;14.43
15144;BMP180;7672;50.834;6.286;2023-04-01T17:57:46;98411.88;;;14.38
15144;BMP180;7672;50.834;6.286;2023-04-01T18:00:25;98411.94;;;14.37
15144;BMP180;7672;50.834;6.286;2023-04-01T18:06:24;98421.31;;;14.86
15144;BMP180;7672;50.834;6.286;2023-04-01T18:12:16;98429.09;;;14.56
15144;BMP180;7672;50.834;6.286;2023-04-01T18:18:11;98446.13;;;14.27
15144;BMP180;7672;50.834;6.286;2023-04-01T18:23:56;98454.13;;;14.14
15144;BMP180;7672;50.834;6.286;2023-04-01T18:26:32;98453.13;;;14.46
15144;BMP180;7672;50.834;6.286;2023-04-01T18:32:00;98460.72;;;14.21
15144;BMP180;7672;50.834;6.286;2023-04-01T18:37:36;98466.22;;;14.06
15144;BMP180;7672;50.834;6.286;2023-04-01T18:40:42;98477.38;;;14.00
15144;BMP180;7672;50.834;6.286;2023-04-01T18:43:36;98480.13;;;13.93
15144;BMP180;7672;50.834;6.286;2023-04-01T18:46:21;98476.78;;;13.91
15144;BMP180;7672;50.834;6.286;2023-04-01T18:52:36;98487.22;;;13.82
15144;BMP180;7672;50.834;6.286;2023-04-01T18:55:22;98487.25;;;13.80
15144;BMP180;7672;50.834;6.286;2023-04-01T18:58:12;98487.31;;;13.79
15144;BMP180;7672;50.834;6.286;2023-04-01T19:01:00;98490.63;;;13.81
15144;BMP180;7672;50.834;6.286;2023-04-01T19:06:58;98503.41;;;13.78
15144;BMP180;7672;50.834;6.286;2023-04-01T19:15:47;98514.03;;;13.92
15144;BMP180;7672;50.834;6.286;2023-04-01T19:21:28;98519.34;;;13.83
15144;BMP180;7672;50.834;6.286;2023-04-01T19:24:55;98519.44;;;13.80
15144;BMP180;7672;50.834;6.286;2023-04-01T19:27:42;98518.69;;;13.76
15144;BMP180;7672;50.834;6.286;2023-04-01T19:30:45;98520.44;;;13.74
15144;BMP180;7672;50.834;6.286;2023-04-01T19:37:05;98525.66;;;13.70
15144;BMP180;7672;50.834;6.286;2023-04-01T19:40:17;98524.88;;;13.66
15144;BMP180;7672;50.834;6.286;2023-04-01T19:52:00;98537.00;;;13.57
15144;BMP180;7672;50.834;6.286;2023-04-01T19:57:52;98541.34;;;13.52
15144;BMP180;7672;50.834;6.286;2023-04-01T20:00:50;98550.63;;;13.53
15144;BMP180;7672;50.834;6.286;2023-04-01T20:06:39;98549.00;;;13.51
15144;BMP180;7672;50.834;6.286;2023-04-01T20:09:46;98562.63;;;13.48
15144;BMP180;7672;50.834;6.286;2023-04-01T20:14:58;98565.16;;;13.48
15144;BMP180;7672;50.834;6.286;2023-04-01T20:17:42;98569.34;;;13.49
15144;BMP180;7672;50.834;6.286;2023-04-01T20:25:30;98570.19;;;13.50
15144;BMP180;7672;50.834;6.286;2023-04-01T20:30:58;98577.84;;;13.47
15144;BMP180;7672;50.834;6.286;2023-04-01T20:39:37;98583.84;;;13.44
15144;BMP180;7672;50.834;6.286;2023-04-01T20:45:33;98596.63;;;13.41
15144;BMP180;7672;50.834;6.286;2023-04-01T20:51:16;98600.03;;;13.40
15144;BMP180;7672;50.834;6.286;2023-04-01T20:54:05;98598.34;;;13.39
15144;BMP180;7672;50.834;6.286;2023-04-01T20:56:59;98608.47;;;13.41
15144;BMP180;7672;50.834;6.286;2023-04-01T20:59:44;98610.97;;;13.42
15144;BMP180;7672;50.834;6.286;2023-04-01T21:02:47;98604.19;;;13.43
15144;BMP180;7672;50.834;6.286;2023-04-01T21:11:10;98611.75;;;13.44
15144;BMP180;7672;50.834;6.286;2023-04-01T21:14:24;98613.47;;;13.44
15144;BMP180;7672;50.834;6.286;2023-04-01T21:20:19;98622.75;;;13.45
15144;BMP180;7672;50.834;6.286;2023-04-01T21:23:20;98626.97;;;13.44
15144;BMP180;7672;50.834;6.286;2023-04-01T21:26:25;98638.00;;;13.45
15144;BMP180;7672;50.834;6.286;2023-04-01T21:32:37;98643.03;;;13.46
15144;BMP180;7672;50.834;6.286;2023-04-01T21:38:43;98654.81;;;13.49
15144;BMP180;7672;50.834;6.286;2023-04-01T21:41:32;98652.22;;;13.50
15144;BMP180;7672;50.834;6.286;2023-04-01T21:47:47;98666.59;;;13.51
15144;BMP180;7672;50.834;6.286;2023-04-01T21:50:46;98668.28;;;13.51
15144;BMP180;7672;50.834;6.286;2023-04-01T22:05:43;98687.81;;;13.49
15144;BMP180;7672;50.834;6.286;2023-04-01T22:11:54;98695.50;;;13.44
15144;BMP180;7672;50.834;6.286;2023-04-01T22:17:35;98706.47;;;13.46
15144;BMP180;7672;50.834;6.286;2023-04-01T22:20:10;98714.91;;;13.48
15144;BMP180;7672;50.834;6.286;2023-04-01T22:23:27;98720.72;;;13.52
15144;BMP180;7672;50.834;6.286;2023-04-01T22:26:03;98715.69;;;13.50
15144;BMP180;7672;50.834;6.286;2023-04-01T22:29:28;98730.06;;;13.51
15144;BMP180;7672;50.834;6.286;2023-04-01T22:32:15;98727.59;;;13.48
15144;BMP180;7672;50.834;6.286;2023-04-01T22:34:57;98736.03;;;13.49
15144;BMP180;7672;50.834;6.286;2023-04-01T22:38:02;98737.75;;;13.47
15144;BMP180;7672;50.834;6.286;2023-04-01T22:43:42;98748.88;;;13.41
15144;BMP180;7672;50.834;6.286;2023-04-01T22:46:49;98754.03;;;13.37
15144;BMP180;7672;50.834;6.286;2023-04-01T22:49:32;98755.91;;;13.29
15144;BMP180;7672;50.834;6.286;2023-04-01T22:52:47;98762.88;;;13.21
15144;BMP180;7672;50.834;6.286;2023-04-01T22:55:04;98770.63;;;13.13
15144;BMP180;7672;50.834;6.286;2023-04-01T23:00:17;98772.50;;;13.05
15144;BMP180;7672;50.834;6.286;2023-04-01T23:05:46;98791.19;;;13.00
15144;BMP180;7672;50.834;6.286;2023-04-01T23:08:40;98793.84;;;12.96
15144;BMP180;7672;50.834;6.286;2023-04-01T23:11:17;98796.44;;;12.91
15144;BMP180;7672;50.834;6.286;2023-04-01T23:13:55;98807.47;;;12.89
15144;BMP180;7672;50.834;6.286;2023-04-01T23:16:42;98814.31;;;12.87
15144;BMP180;7672;50.834;6.286;2023-04-01T23:19:17;98815.19;;;12.83
15144;BMP180;7672;50.834;6.286;2023-04-01T23:21:54;98817.78;;;12.81
15144;BMP180;7672;50.834;6.286;2023-04-01T23:24:49;98816.94;;;12.79
15144;BMP180;7672;50.834;6.286;2023-04-01T23:27:27;98833.00;;;12.78
15144;BMP180;7672;50.834;6.286;2023-04-01T23:29:57;98828.88;;;12.74
15144;BMP180;7672;50.834;6.286;2023-04-01T23:32:27;98839.06;;;12.71
15144;BMP180;7672;50.834;6.286;2023-04-01T23:34:58;98846.75;;;12.67
15144;BMP180;7672;50.834;6.286;2023-04-01T23:37:30;98846.81;;;12.64
15144;BMP180;7672;50.834;6.286;2023-04-01T23:39:58;98845.13;;;12.63